sensor_id;sensor_type;location;lat;lon;timestamp;P1;durP1;ratioP1;P2;durP2;ratioP2
1751;SDS011;873;47.696;8.068;2023-04-03T00:00:46;1.27;;;1.10;;
1751;SDS011;873;47.696;8.068;2023-04-03T00:03:14;1.40;;;1.30;;
1751;SDS011;873;47.696;8.068;2023-04-03T00:05:40;1.20;;;1.10;;
1751;SDS011;873;47.696;8.068;2023-04-03T00:08:06;1.50;;;1.40;;
1751;SDS011;873;47.696;8.068;2023-04-03T00:10:33;1.10;;;1.00;;
1751;SDS011;873;47.696;8.068;2023-04-03T00:12:58;1.30;;;1.20;;
1751;SDS011;873;47.696;8.068;2023-04-03T00:15:24;1.60;;;1.30;;
1751;SDS011;873;47.696;8.068;2023-04-03T00:17:50;1.50;;;1.40;;
1751;SDS011;873;47.696;8.068;2023-04-03T00:20:15;1.40;;;1.30;;
1751;SDS011;873;47.696;8.068;2023-04-03T00:22:41;1.30;;;1.20;;
1751;SDS011;873;47.696;8.068;2023-04-03T00:25:06;1.60;;;1.13;;
1751;SDS011;873;47.696;8.068;2023-04-03T00:27:32;3.17;;;1.50;;
1751;SDS011;873;47.696;8.068;2023-04-03T00:29:58;2.07;;;1.33;;
1751;SDS011;873;47.696;8.068;2023-04-03T00:32:23;1.87;;;1.20;;
1751;SDS011;873;47.696;8.068;2023-04-03T00:34:49;1.70;;;1.30;;
1751;SDS011;873;47.696;8.068;2023-04-03T00:37:14;1.50;;;1.27;;
1751;SDS011;873;47.696;8.068;2023-04-03T00:39:40;1.57;;;1.47;;
1751;SDS011;873;47.696;8.068;2023-04-03T00:42:06;1.43;;;1.27;;
1751;SDS011;873;47.696;8.068;2023-04-03T00:47:11;2.03;;;1.60;;
1751;SDS011;873;47.696;8.068;2023-04-03T00:49:37;1.73;;;1.60;;
1751;SDS011;873;47.696;8.068;2023-04-03T00:52:03;2.00;;;1.60;;
1751;SDS011;873;47.696;8.068;2023-04-03T00:54:31;1.63;;;1.43;;
1751;SDS011;873;47.696;8.068;2023-04-03T00:56:57;1.73;;;1.30;;
1751;SDS011;873;47.696;8.068;2023-04-03T00:59:24;3.10;;;1.60;;
1751;SDS011;873;47.696;8.068;2023-04-03T01:01:52;2.13;;;1.90;;
1751;SDS011;873;47.696;8.068;2023-04-03T01:07:06;1.50;;;1.30;;
1751;SDS011;873;47.696;8.068;2023-04-03T01:09:34;1.97;;;1.40;;
1751;SDS011;873;47.696;8.068;2023-04-03T01:12:17;1.80;;;1.40;;
1751;SDS011;873;47.696;8.068;2023-04-03T01:14:55;2.10;;;1.53;;
1751;SDS011;873;47.696;8.068;2023-04-03T01:17:39;1.53;;;1.33;;
1751;SDS011;873;47.696;8.068;2023-04-03T01:25:50;2.03;;;1.87;;
1751;SDS011;873;47.696;8.068;2023-04-03T01:28:18;4.10;;;2.27;;
1751;SDS011;873;47.696;8.068;2023-04-03T01:30:53;2.87;;;1.90;;
1751;SDS011;873;47.696;8.068;2023-04-03T01:33:24;2.50;;;2.30;;
1751;SDS011;873;47.696;8.068;2023-04-03T01:35:50;2.50;;;2.30;;
1751;SDS011;873;47.696;8.068;2023-04-03T01:38:15;3.20;;;2.47;;
1751;SDS011;873;47.696;8.068;2023-04-03T01:40:41;3.20;;;2.70;;
1751;SDS011;873;47.696;8.068;2023-04-03T01:43:06;3.93;;;2.00;;
1751;SDS011;873;47.696;8.068;2023-04-03T01:45:32;3.03;;;2.33;;
1751;SDS011;873;47.696;8.068;2023-04-03T01:47:57;2.50;;;2.30;;
1751;SDS011;873;47.696;8.068;2023-04-03T01:50:23;2.77;;;2.40;;
1751;SDS011;873;47.696;8.068;2023-04-03T01:52:48;2.90;;;2.23;;
1751;SDS011;873;47.696;8.068;2023-04-03T01:55:14;2.80;;;2.13;;
1751;SDS011;873;47.696;8.068;2023-04-03T01:57:40;2.03;;;1.80;;
1751;SDS011;873;47.696;8.068;2023-04-03T02:00:05;2.10;;;1.90;;
1751;SDS011;873;47.696;8.068;2023-04-03T02:02:33;2.03;;;1.80;;
1751;SDS011;873;47.696;8.068;2023-04-03T02:04:58;2.07;;;1.80;;
1751;SDS011;873;47.696;8.068;2023-04-03T02:07:24;2.40;;;2.00;;
1751;SDS011;873;47.696;8.068;2023-04-03T02:09:49;2.10;;;1.80;;
1751;SDS011;873;47.696;8.068;2023-04-03T02:12:15;1.70;;;1.43;;
1751;SDS011;873;47.696;8.068;2023-04-03T02:14:40;1.70;;;1.40;;
1751;SDS011;873;47.696;8.068;2023-04-03T02:17:06;1.60;;;1.30;;
1751;SDS011;873;47.696;8.068;2023-04-03T02:19:34;1.43;;;1.33;;
1751;SDS011;873;47.696;8.068;2023-04-03T02:22:00;1.30;;;1.20;;
1751;SDS011;873;47.696;8.068;2023-04-03T02:24:27;1.40;;;1.30;;
1751;SDS011;873;47.696;8.068;2023-04-03T02:26:52;1.50;;;1.17;;
1751;SDS011;873;47.696;8.068;2023-04-03T02:29:18;1.27;;;1.03;;
1751;SDS011;873;47.696;8.068;2023-04-03T02:31:44;1.30;;;1.20;;
1751;SDS011;873;47.696;8.068;2023-04-03T02:34:09;2.77;;;1.17;;
1751;SDS011;873;47.696;8.068;2023-04-03T02:36:35;1.20;;;1.10;;
1751;SDS011;873;47.696;8.068;2023-04-03T02:39:01;1.70;;;1.27;;
1751;SDS011;873;47.696;8.068;2023-04-03T02:41:26;1.20;;;1.10;;
1751;SDS011;873;47.696;8.068;2023-04-03T02:43:58;1.53;;;1.40;;
1751;SDS011;873;47.696;8.068;2023-04-03T02:46:24;0.97;;;0.90;;
1751;SDS011;873;47.696;8.068;2023-04-03T02:48:49;1.90;;;1.80;;
1751;SDS011;873;47.696;8.068;2023-04-03T02:51:15;1.60;;;1.50;;
1751;SDS011;873;47.696;8.068;2023-04-03T02:53:41;1.30;;;1.20;;
1751;SDS011;873;47.696;8.068;2023-04-03T02:56:06;1.50;;;1.40;;
1751;SDS011;873;47.696;8.068;2023-04-03T02:58:32;1.97;;;1.77;;
1751;SDS011;873;47.696;8.068;2023-04-03T03:00:57;2.33;;;1.70;;
1751;SDS011;873;47.696;8.068;2023-04-03T03:03:22;1.70;;;1.57;;
1751;SDS011;873;47.696;8.068;2023-04-03T03:05:48;2.20;;;1.80;;
1751;SDS011;873;47.696;8.068;2023-04-03T03:08:13;2.13;;;1.97;;
1751;SDS011;873;47.696;8.068;2023-04-03T03:10:39;3.77;;;2.27;;
1751;SDS011;873;47.696;8.068;2023-04-03T03:13:05;2.37;;;2.17;;
1751;SDS011;873;47.696;8.068;2023-04-03T03:15:30;2.70;;;2.10;;
1751;SDS011;873;47.696;8.068;2023-04-03T03:17:56;3.40;;;2.00;;
1751;SDS011;873;47.696;8.068;2023-04-03T03:20:21;2.47;;;2.27;;
1751;SDS011;873;47.696;8.068;2023-04-03T03:22:47;3.00;;;2.70;;
1751;SDS011;873;47.696;8.068;2023-04-03T03:25:12;2.97;;;2.57;;
1751;SDS011;873;47.696;8.068;2023-04-03T03:27:38;3.00;;;2.70;;
1751;SDS011;873;47.696;8.068;2023-04-03T03:30:04;3.07;;;2.60;;
1751;SDS011;873;47.696;8.068;2023-04-03T03:32:30;2.73;;;2.20;;
1751;SDS011;873;47.696;8.068;2023-04-03T03:34:55;2.73;;;2.53;;
1751;SDS011;873;47.696;8.068;2023-04-03T03:37:21;2.47;;;2.27;;
1751;SDS011;873;47.696;8.068;2023-04-03T03:39:46;2.43;;;2.23;;
1751;SDS011;873;47.696;8.068;2023-04-03T03:42:11;3.17;;;2.53;;
1751;SDS011;873;47.696;8.068;2023-04-03T03:44:37;4.50;;;2.90;;
1751;SDS011;873;47.696;8.068;2023-04-03T03:47:02;5.00;;;3.40;;
1751;SDS011;873;47.696;8.068;2023-04-03T03:49:28;4.87;;;3.63;;
1751;SDS011;873;47.696;8.068;2023-04-03T03:51:53;5.63;;;4.17;;
1751;SDS011;873;47.696;8.068;2023-04-03T03:54:19;7.93;;;4.03;;
1751;SDS011;873;47.696;8.068;2023-04-03T03:56:45;6.30;;;4.13;;
1751;SDS011;873;47.696;8.068;2023-04-03T03:59:11;4.80;;;4.30;;
1751;SDS011;873;47.696;8.068;2023-04-03T04:01:37;9.47;;;4.43;;
1751;SDS011;873;47.696;8.068;2023-04-03T04:04:03;16.20;;;5.87;;
1751;SDS011;873;47.696;8.068;2023-04-03T04:06:28;19.07;;;5.37;;
1751;SDS011;873;47.696;8.068;2023-04-03T04:08:54;11.57;;;5.57;;
1751;SDS011;873;47.696;8.068;2023-04-03T04:11:19;16.00;;;6.10;;
1751;SDS011;873;47.696;8.068;2023-04-03T04:13:46;12.10;;;6.23;;
1751;SDS011;873;47.696;8.068;2023-04-03T04:16:12;36.50;;;7.90;;
1751;SDS011;873;47.696;8.068;2023-04-03T04:18:37;34.60;;;6.23;;
1751;SDS011;873;47.696;8.068;2023-04-03T04:21:03;20.30;;;6.70;;
1751;SDS011;873;47.696;8.068;2023-04-03T04:23:28;11.03;;;6.20;;
1751;SDS011;873;47.696;8.068;2023-04-03T04:25:54;18.87;;;6.80;;
1751;SDS011;873;47.696;8.068;2023-04-03T04:28:19;6.67;;;5.83;;
1751;SDS011;873;47.696;8.068;2023-04-03T04:30:45;6.97;;;6.23;;
1751;SDS011;873;47.696;8.068;2023-04-03T04:33:11;6.93;;;6.20;;
1751;SDS011;873;47.696;8.068;2023-04-03T04:35:36;7.20;;;6.03;;
1751;SDS011;873;47.696;8.068;2023-04-03T04:38:02;6.97;;;6.20;;
1751;SDS011;873;47.696;8.068;2023-04-03T04:40:28;8.90;;;6.33;;
1751;SDS011;873;47.696;8.068;2023-04-03T04:42:53;6.67;;;5.50;;
1751;SDS011;873;47.696;8.068;2023-04-03T04:45:19;7.87;;;5.67;;
1751;SDS011;873;47.696;8.068;2023-04-03T04:47:45;12.20;;;6.70;;
1751;SDS011;873;47.696;8.068;2023-04-03T04:50:10;7.87;;;6.50;;
1751;SDS011;873;47.696;8.068;2023-04-03T04:52:36;10.93;;;7.17;;
1751;SDS011;873;47.696;8.068;2023-04-03T04:55:02;7.67;;;5.63;;
1751;SDS011;873;47.696;8.068;2023-04-03T04:57:28;12.33;;;7.73;;
1751;SDS011;873;47.696;8.068;2023-04-03T04:59:53;12.70;;;7.70;;
1751;SDS011;873;47.696;8.068;2023-04-03T05:02:19;8.67;;;6.63;;
1751;SDS011;873;47.696;8.068;2023-04-03T05:04:45;7.40;;;6.70;;
1751;SDS011;873;47.696;8.068;2023-04-03T05:07:10;7.70;;;6.70;;
1751;SDS011;873;47.696;8.068;2023-04-03T05:09:36;7.23;;;6.30;;
1751;SDS011;873;47.696;8.068;2023-04-03T05:12:02;9.07;;;6.30;;
1751;SDS011;873;47.696;8.068;2023-04-03T05:14:28;7.80;;;6.60;;
1751;SDS011;873;47.696;8.068;2023-04-03T05:16:54;7.03;;;6.33;;
1751;SDS011;873;47.696;8.068;2023-04-03T05:19:19;7.17;;;6.40;;
1751;SDS011;873;47.696;8.068;2023-04-03T05:21:46;7.10;;;6.03;;
1751;SDS011;873;47.696;8.068;2023-04-03T05:24:11;7.80;;;6.50;;
1751;SDS011;873;47.696;8.068;2023-04-03T05:26:37;7.43;;;6.20;;
1751;SDS011;873;47.696;8.068;2023-04-03T05:29:03;7.17;;;5.83;;
1751;SDS011;873;47.696;8.068;2023-04-03T05:31:28;8.30;;;7.00;;
1751;SDS011;873;47.696;8.068;2023-04-03T05:33:55;6.00;;;5.40;;
1751;SDS011;873;47.696;8.068;2023-04-03T05:36:20;6.00;;;5.27;;
1751;SDS011;873;47.696;8.068;2023-04-03T05:38:46;7.10;;;5.60;;
1751;SDS011;873;47.696;8.068;2023-04-03T05:41:12;6.57;;;5.83;;
1751;SDS011;873;47.696;8.068;2023-04-03T05:43:38;5.20;;;4.63;;
1751;SDS011;873;47.696;8.068;2023-04-03T05:46:06;5.77;;;5.17;;
1751;SDS011;873;47.696;8.068;2023-04-03T05:48:35;6.13;;;5.13;;
1751;SDS011;873;47.696;8.068;2023-04-03T05:51:02;6.03;;;5.37;;
1751;SDS011;873;47.696;8.068;2023-04-03T05:53:28;6.57;;;5.20;;
1751;SDS011;873;47.696;8.068;2023-04-03T05:55:57;7.33;;;4.53;;
1751;SDS011;873;47.696;8.068;2023-04-03T05:58:22;7.67;;;4.80;;
1751;SDS011;873;47.696;8.068;2023-04-03T06:00:48;4.87;;;4.37;;
1751;SDS011;873;47.696;8.068;2023-04-03T06:03:13;6.00;;;4.90;;
1751;SDS011;873;47.696;8.068;2023-04-03T06:05:40;6.53;;;5.37;;
1751;SDS011;873;47.696;8.068;2023-04-03T06:08:06;5.70;;;5.10;;
1751;SDS011;873;47.696;8.068;2023-04-03T06:10:32;5.70;;;4.30;;
1751;SDS011;873;47.696;8.068;2023-04-03T06:12:57;6.27;;;5.40;;
1751;SDS011;873;47.696;8.068;2023-04-03T06:15:23;6.10;;;5.20;;
1751;SDS011;873;47.696;8.068;2023-04-03T06:17:48;7.43;;;5.67;;
1751;SDS011;873;47.696;8.068;2023-04-03T06:20:14;6.43;;;5.27;;
1751;SDS011;873;47.696;8.068;2023-04-03T06:22:40;7.17;;;4.87;;
1751;SDS011;873;47.696;8.068;2023-04-03T06:25:07;6.23;;;5.47;;
1751;SDS011;873;47.696;8.068;2023-04-03T06:27:33;7.20;;;6.50;;
1751;SDS011;873;47.696;8.068;2023-04-03T06:29:58;7.30;;;6.07;;
1751;SDS011;873;47.696;8.068;2023-04-03T06:32:24;7.07;;;6.37;;
1751;SDS011;873;47.696;8.068;2023-04-03T06:34:50;6.87;;;5.90;;
1751;SDS011;873;47.696;8.068;2023-04-03T06:37:17;6.57;;;5.73;;
1751;SDS011;873;47.696;8.068;2023-04-03T06:39:45;8.63;;;6.73;;
1751;SDS011;873;47.696;8.068;2023-04-03T06:42:10;8.87;;;6.93;;
1751;SDS011;873;47.696;8.068;2023-04-03T06:44:36;8.90;;;7.10;;
1751;SDS011;873;47.696;8.068;2023-04-03T06:47:02;9.80;;;7.87;;
1751;SDS011;873;47.696;8.068;2023-04-03T06:49:27;8.40;;;6.93;;
1751;SDS011;873;47.696;8.068;2023-04-03T06:51:54;10.07;;;7.20;;
1751;SDS011;873;47.696;8.068;2023-04-03T06:54:21;8.47;;;7.37;;
1751;SDS011;873;47.696;8.068;2023-04-03T06:56:46;9.33;;;6.97;;
1751;SDS011;873;47.696;8.068;2023-04-03T06:59:12;8.57;;;6.37;;
1751;SDS011;873;47.696;8.068;2023-04-03T07:01:38;6.87;;;6.03;;
1751;SDS011;873;47.696;8.068;2023-04-03T07:04:04;8.80;;;6.07;;
1751;SDS011;873;47.696;8.068;2023-04-03T07:06:30;8.70;;;7.10;;
1751;SDS011;873;47.696;8.068;2023-04-03T07:08:58;9.17;;;6.87;;
1751;SDS011;873;47.696;8.068;2023-04-03T07:11:24;9.20;;;6.37;;
1751;SDS011;873;47.696;8.068;2023-04-03T07:13:50;7.93;;;6.43;;
1751;SDS011;873;47.696;8.068;2023-04-03T07:16:16;9.70;;;7.37;;
1751;SDS011;873;47.696;8.068;2023-04-03T07:18:41;8.13;;;6.23;;
1751;SDS011;873;47.696;8.068;2023-04-03T07:21:07;7.47;;;6.53;;
1751;SDS011;873;47.696;8.068;2023-04-03T07:23:32;8.17;;;6.00;;
1751;SDS011;873;47.696;8.068;2023-04-03T07:25:58;6.90;;;6.20;;
1751;SDS011;873;47.696;8.068;2023-04-03T07:28:25;7.60;;;6.17;;
1751;SDS011;873;47.696;8.068;2023-04-03T07:30:52;7.87;;;6.23;;
1751;SDS011;873;47.696;8.068;2023-04-03T07:33:19;7.77;;;6.27;;
1751;SDS011;873;47.696;8.068;2023-04-03T07:35:46;6.60;;;5.53;;
1751;SDS011;873;47.696;8.068;2023-04-03T07:38:12;8.30;;;5.70;;
1751;SDS011;873;47.696;8.068;2023-04-03T07:40:37;7.60;;;6.43;;
1751;SDS011;873;47.696;8.068;2023-04-03T07:43:04;6.20;;;5.50;;
1751;SDS011;873;47.696;8.068;2023-04-03T07:45:30;7.57;;;5.80;;
1751;SDS011;873;47.696;8.068;2023-04-03T07:47:56;6.20;;;5.47;;
1751;SDS011;873;47.696;8.068;2023-04-03T07:50:22;5.80;;;5.20;;
1751;SDS011;873;47.696;8.068;2023-04-03T07:52:48;6.97;;;5.97;;
1751;SDS011;873;47.696;8.068;2023-04-03T07:55:14;8.47;;;5.87;;
1751;SDS011;873;47.696;8.068;2023-04-03T07:57:39;6.17;;;5.27;;
1751;SDS011;873;47.696;8.068;2023-04-03T08:00:05;6.30;;;5.50;;
1751;SDS011;873;47.696;8.068;2023-04-03T08:02:32;9.53;;;5.60;;
1751;SDS011;873;47.696;8.068;2023-04-03T08:04:57;7.83;;;5.30;;
1751;SDS011;873;47.696;8.068;2023-04-03T08:07:24;7.00;;;5.47;;
1751;SDS011;873;47.696;8.068;2023-04-03T08:09:50;7.00;;;5.50;;
1751;SDS011;873;47.696;8.068;2023-04-03T08:12:15;7.17;;;5.50;;
1751;SDS011;873;47.696;8.068;2023-04-03T08:14:41;6.13;;;5.20;;
1751;SDS011;873;47.696;8.068;2023-04-03T08:17:06;5.60;;;5.10;;
1751;SDS011;873;47.696;8.068;2023-04-03T08:19:36;7.90;;;4.80;;
1751;SDS011;873;47.696;8.068;2023-04-03T08:22:03;5.57;;;5.00;;
1751;SDS011;873;47.696;8.068;2023-04-03T08:24:30;5.07;;;4.57;;
1751;SDS011;873;47.696;8.068;2023-04-03T08:26:57;5.20;;;4.70;;
1751;SDS011;873;47.696;8.068;2023-04-03T08:29:22;6.83;;;4.80;;
1751;SDS011;873;47.696;8.068;2023-04-03T08:31:49;5.47;;;4.93;;
1751;SDS011;873;47.696;8.068;2023-04-03T08:34:15;5.30;;;4.67;;
1751;SDS011;873;47.696;8.068;2023-04-03T08:36:42;5.23;;;4.73;;
1751;SDS011;873;47.696;8.068;2023-04-03T08:39:08;4.50;;;4.10;;
1751;SDS011;873;47.696;8.068;2023-04-03T08:41:36;4.80;;;4.17;;
1751;SDS011;873;47.696;8.068;2023-04-03T08:49:58;4.43;;;3.60;;
1751;SDS011;873;47.696;8.068;2023-04-03T08:52:30;4.43;;;4.03;;
1751;SDS011;873;47.696;8.068;2023-04-03T08:55:01;4.67;;;4.03;;
1751;SDS011;873;47.696;8.068;2023-04-03T08:57:31;2.93;;;2.70;;
1751;SDS011;873;47.696;8.068;2023-04-03T09:00:15;3.47;;;3.17;;
1751;SDS011;873;47.696;8.068;2023-04-03T09:02:48;5.07;;;3.20;;
1751;SDS011;873;47.696;8.068;2023-04-03T09:07:55;3.83;;;2.63;;
1751;SDS011;873;47.696;8.068;2023-04-03T09:10:26;3.13;;;2.30;;
1751;SDS011;873;47.696;8.068;2023-04-03T09:12:57;4.83;;;2.70;;
1751;SDS011;873;47.696;8.068;2023-04-03T09:15:27;2.63;;;2.17;;
1751;SDS011;873;47.696;8.068;2023-04-03T09:26:05;3.20;;;2.87;;
1751;SDS011;873;47.696;8.068;2023-04-03T09:28:35;3.10;;;2.50;;
1751;SDS011;873;47.696;8.068;2023-04-03T09:31:06;2.87;;;2.30;;
1751;SDS011;873;47.696;8.068;2023-04-03T09:33:50;3.30;;;3.00;;
1751;SDS011;873;47.696;8.068;2023-04-03T09:36:39;3.10;;;2.50;;
1751;SDS011;873;47.696;8.068;2023-04-03T09:41:56;2.87;;;2.40;;
1751;SDS011;873;47.696;8.068;2023-04-03T09:44:34;3.90;;;2.53;;
1751;SDS011;873;47.696;8.068;2023-04-03T09:47:19;2.13;;;1.83;;
1751;SDS011;873;47.696;8.068;2023-04-03T09:49:49;2.67;;;1.87;;
1751;SDS011;873;47.696;8.068;2023-04-03T09:52:23;2.00;;;1.80;;
1751;SDS011;873;47.696;8.068;2023-04-03T09:54:50;1.80;;;1.70;;
1751;SDS011;873;47.696;8.068;2023-04-03T09:57:16;2.83;;;2.03;;
1751;SDS011;873;47.696;8.068;2023-04-03T09:59:44;2.20;;;2.00;;
1751;SDS011;873;47.696;8.068;2023-04-03T10:02:23;2.00;;;1.80;;
1751;SDS011;873;47.696;8.068;2023-04-03T10:05:02;2.27;;;1.90;;
1751;SDS011;873;47.696;8.068;2023-04-03T10:10:23;2.37;;;2.00;;
1751;SDS011;873;47.696;8.068;2023-04-03T10:13:03;2.90;;;2.17;;
1751;SDS011;873;47.696;8.068;2023-04-03T10:15:32;1.77;;;1.60;;
1751;SDS011;873;47.696;8.068;2023-04-03T10:18:05;3.53;;;2.00;;
1751;SDS011;873;47.696;8.068;2023-04-03T10:31:29;1.97;;;1.40;;
1751;SDS011;873;47.696;8.068;2023-04-03T10:40:04;1.40;;;1.30;;
1751;SDS011;873;47.696;8.068;2023-04-03T10:45:53;1.30;;;1.20;;
1751;SDS011;873;47.696;8.068;2023-04-03T10:51:37;1.30;;;1.20;;
1751;SDS011;873;47.696;8.068;2023-04-03T10:56:47;2.43;;;1.70;;
1751;SDS011;873;47.696;8.068;2023-04-03T10:59:23;2.70;;;1.53;;
1751;SDS011;873;47.696;8.068;2023-04-03T11:01:56;1.97;;;1.50;;
1751;SDS011;873;47.696;8.068;2023-04-03T11:04:28;1.97;;;1.80;;
1751;SDS011;873;47.696;8.068;2023-04-03T11:07:00;2.17;;;1.60;;
1751;SDS011;873;47.696;8.068;2023-04-03T11:09:30;2.20;;;2.00;;
1751;SDS011;873;47.696;8.068;2023-04-03T11:12:01;2.83;;;1.30;;
1751;SDS011;873;47.696;8.068;2023-04-03T11:14:34;1.80;;;1.50;;
1751;SDS011;873;47.696;8.068;2023-04-03T11:17:05;2.40;;;1.70;;
1751;SDS011;873;47.696;8.068;2023-04-03T11:22:57;2.40;;;1.90;;
1751;SDS011;873;47.696;8.068;2023-04-03T11:25:35;2.13;;;1.93;;
1751;SDS011;873;47.696;8.068;2023-04-03T11:28:04;1.67;;;1.57;;
1751;SDS011;873;47.696;8.068;2023-04-03T11:33:47;3.53;;;1.80;;
1751;SDS011;873;47.696;8.068;2023-04-03T11:36:55;1.67;;;1.57;;
1751;SDS011;873;47.696;8.068;2023-04-03T11:39:24;1.67;;;1.57;;
1751;SDS011;873;47.696;8.068;2023-04-03T11:41:51;2.07;;;1.87;;
1751;SDS011;873;47.696;8.068;2023-04-03T11:44:27;2.00;;;1.70;;
1751;SDS011;873;47.696;8.068;2023-04-03T11:46:57;1.97;;;1.70;;
1751;SDS011;873;47.696;8.068;2023-04-03T12:08:47;10.10;;;1.90;;
1751;SDS011;873;47.696;8.068;2023-04-03T12:11:25;2.10;;;1.90;;
1751;SDS011;873;47.696;8.068;2023-04-03T12:24:38;1.87;;;1.67;;
1751;SDS011;873;47.696;8.068;2023-04-03T12:27:14;1.97;;;1.77;;
1751;SDS011;873;47.696;8.068;2023-04-03T12:30:01;2.50;;;2.03;;
1751;SDS011;873;47.696;8.068;2023-04-03T12:38:33;1.97;;;1.77;;
1751;SDS011;873;47.696;8.068;2023-04-03T12:43:59;2.57;;;2.00;;
1751;SDS011;873;47.696;8.068;2023-04-03T12:46:48;2.03;;;1.83;;
1751;SDS011;873;47.696;8.068;2023-04-03T12:49:33;3.03;;;2.07;;
1751;SDS011;873;47.696;8.068;2023-04-03T12:52:04;3.07;;;2.03;;
1751;SDS011;873;47.696;8.068;2023-04-03T12:54:34;2.73;;;2.20;;
1751;SDS011;873;47.696;8.068;2023-04-03T12:57:09;1.93;;;1.73;;
1751;SDS011;873;47.696;8.068;2023-04-03T12:59:52;2.40;;;2.20;;
1751;SDS011;873;47.696;8.068;2023-04-03T13:02:21;2.50;;;2.00;;
1751;SDS011;873;47.696;8.068;2023-04-03T13:04:51;2.70;;;1.90;;
1751;SDS011;873;47.696;8.068;2023-04-03T13:07:19;2.30;;;2.10;;
1751;SDS011;873;47.696;8.068;2023-04-03T13:09:54;2.10;;;1.90;;
1751;SDS011;873;47.696;8.068;2023-04-03T13:12:22;2.20;;;1.97;;
1751;SDS011;873;47.696;8.068;2023-04-03T13:14:52;2.10;;;1.90;;
1751;SDS011;873;47.696;8.068;2023-04-03T13:17:19;3.30;;;2.23;;
1751;SDS011;873;47.696;8.068;2023-04-03T13:19:45;2.07;;;1.83;;
1751;SDS011;873;47.696;8.068;2023-04-03T13:24:49;2.30;;;2.10;;
1751;SDS011;873;47.696;8.068;2023-04-03T13:27:16;3.93;;;2.40;;
1751;SDS011;873;47.696;8.068;2023-04-03T13:29:42;2.83;;;2.10;;
1751;SDS011;873;47.696;8.068;2023-04-03T13:32:13;4.60;;;2.27;;
1751;SDS011;873;47.696;8.068;2023-04-03T13:34:45;2.90;;;2.60;;
1751;SDS011;873;47.696;8.068;2023-04-03T13:37:33;2.10;;;1.80;;
1751;SDS011;873;47.696;8.068;2023-04-03T13:39:58;2.17;;;1.97;;
1751;SDS011;873;47.696;8.068;2023-04-03T13:42:37;2.10;;;1.90;;
1751;SDS011;873;47.696;8.068;2023-04-03T13:45:08;2.93;;;2.20;;
1751;SDS011;873;47.696;8.068;2023-04-03T13:47:53;2.30;;;2.10;;
1751;SDS011;873;47.696;8.068;2023-04-03T13:50:32;3.37;;;1.97;;
1751;SDS011;873;47.696;8.068;2023-04-03T13:53:00;2.30;;;1.70;;
1751;SDS011;873;47.696;8.068;2023-04-03T13:55:29;2.10;;;1.70;;
1751;SDS011;873;47.696;8.068;2023-04-03T13:58:00;1.60;;;1.50;;
1751;SDS011;873;47.696;8.068;2023-04-03T14:00:38;3.05;;;1.65;;
1751;SDS011;873;47.696;8.068;2023-04-03T14:06:18;2.57;;;2.37;;
1751;SDS011;873;47.696;8.068;2023-04-03T14:08:44;2.03;;;1.83;;
1751;SDS011;873;47.696;8.068;2023-04-03T14:11:19;1.73;;;1.63;;
1751;SDS011;873;47.696;8.068;2023-04-03T14:13:47;3.30;;;1.50;;
1751;SDS011;873;47.696;8.068;2023-04-03T14:16:15;2.70;;;1.83;;
1751;SDS011;873;47.696;8.068;2023-04-03T14:18:43;2.60;;;1.77;;
1751;SDS011;873;47.696;8.068;2023-04-03T14:21:11;2.03;;;1.50;;
1751;SDS011;873;47.696;8.068;2023-04-03T14:23:39;2.10;;;1.60;;
1751;SDS011;873;47.696;8.068;2023-04-03T14:26:08;1.40;;;1.30;;
1751;SDS011;873;47.696;8.068;2023-04-03T14:28:36;1.67;;;1.50;;
1751;SDS011;873;47.696;8.068;2023-04-03T14:31:02;2.13;;;1.40;;
1751;SDS011;873;47.696;8.068;2023-04-03T14:33:27;1.70;;;1.60;;
1751;SDS011;873;47.696;8.068;2023-04-03T14:35:56;2.90;;;1.30;;
1751;SDS011;873;47.696;8.068;2023-04-03T14:38:23;3.13;;;2.13;;
1751;SDS011;873;47.696;8.068;2023-04-03T14:40:50;3.00;;;1.93;;
1751;SDS011;873;47.696;8.068;2023-04-03T14:43:16;2.50;;;2.13;;
1751;SDS011;873;47.696;8.068;2023-04-03T14:45:42;4.00;;;2.10;;
1751;SDS011;873;47.696;8.068;2023-04-03T14:48:10;2.30;;;1.80;;
1751;SDS011;873;47.696;8.068;2023-04-03T14:50:41;2.37;;;2.00;;
1751;SDS011;873;47.696;8.068;2023-04-03T14:53:07;2.57;;;2.30;;
1751;SDS011;873;47.696;8.068;2023-04-03T14:55:32;1.97;;;1.80;;
1751;SDS011;873;47.696;8.068;2023-04-03T14:57:58;2.80;;;2.00;;
1751;SDS011;873;47.696;8.068;2023-04-03T15:00:24;2.67;;;1.90;;
1751;SDS011;873;47.696;8.068;2023-04-03T15:02:50;3.20;;;1.80;;
1751;SDS011;873;47.696;8.068;2023-04-03T15:05:15;3.43;;;1.80;;
1751;SDS011;873;47.696;8.068;2023-04-03T15:07:43;2.07;;;1.60;;
1751;SDS011;873;47.696;8.068;2023-04-03T15:10:21;2.23;;;1.97;;
1751;SDS011;873;47.696;8.068;2023-04-03T15:12:59;3.03;;;2.43;;
1751;SDS011;873;47.696;8.068;2023-04-03T15:15:27;2.17;;;1.97;;
1751;SDS011;873;47.696;8.068;2023-04-03T15:17:54;3.20;;;2.10;;
1751;SDS011;873;47.696;8.068;2023-04-03T15:20:22;2.77;;;2.07;;
1751;SDS011;873;47.696;8.068;2023-04-03T15:22:49;3.37;;;2.40;;
1751;SDS011;873;47.696;8.068;2023-04-03T15:25:14;4.53;;;2.37;;
1751;SDS011;873;47.696;8.068;2023-04-03T15:27:40;2.20;;;1.80;;
1751;SDS011;873;47.696;8.068;2023-04-03T15:30:07;2.27;;;2.07;;
1751;SDS011;873;47.696;8.068;2023-04-03T15:32:36;2.37;;;1.97;;
1751;SDS011;873;47.696;8.068;2023-04-03T15:35:02;3.23;;;2.03;;
1751;SDS011;873;47.696;8.068;2023-04-03T15:37:29;2.43;;;2.23;;
1751;SDS011;873;47.696;8.068;2023-04-03T15:39:55;2.93;;;1.93;;
1751;SDS011;873;47.696;8.068;2023-04-03T15:42:20;2.10;;;1.90;;
1751;SDS011;873;47.696;8.068;2023-04-03T15:44:46;2.67;;;1.83;;
1751;SDS011;873;47.696;8.068;2023-04-03T15:47:12;2.03;;;1.87;;
1751;SDS011;873;47.696;8.068;2023-04-03T15:49:38;2.37;;;2.03;;
1751;SDS011;873;47.696;8.068;2023-04-03T15:52:04;2.90;;;1.93;;
1751;SDS011;873;47.696;8.068;2023-04-03T15:54:29;3.17;;;2.33;;
1751;SDS011;873;47.696;8.068;2023-04-03T15:56:56;2.77;;;2.43;;
1751;SDS011;873;47.696;8.068;2023-04-03T15:59:22;3.20;;;2.27;;
1751;SDS011;873;47.696;8.068;2023-04-03T16:01:47;3.37;;;1.93;;
1751;SDS011;873;47.696;8.068;2023-04-03T16:04:14;2.80;;;2.07;;
1751;SDS011;873;47.696;8.068;2023-04-03T16:06:40;3.13;;;2.10;;
1751;SDS011;873;47.696;8.068;2023-04-03T16:09:06;2.80;;;2.10;;
1751;SDS011;873;47.696;8.068;2023-04-03T16:11:32;2.30;;;2.10;;
1751;SDS011;873;47.696;8.068;2023-04-03T16:14:00;2.30;;;2.03;;
1751;SDS011;873;47.696;8.068;2023-04-03T16:16:25;3.00;;;2.00;;
1751;SDS011;873;47.696;8.068;2023-04-03T16:18:53;2.80;;;2.10;;
1751;SDS011;873;47.696;8.068;2023-04-03T16:21:20;2.70;;;2.10;;
1751;SDS011;873;47.696;8.068;2023-04-03T16:23:45;2.83;;;2.20;;
1751;SDS011;873;47.696;8.068;2023-04-03T16:26:11;1.97;;;1.70;;
1751;SDS011;873;47.696;8.068;2023-04-03T16:28:38;3.27;;;2.10;;
1751;SDS011;873;47.696;8.068;2023-04-03T16:31:04;2.47;;;2.27;;
1751;SDS011;873;47.696;8.068;2023-04-03T16:33:31;2.73;;;2.00;;
1751;SDS011;873;47.696;8.068;2023-04-03T16:35:57;4.60;;;2.10;;
1751;SDS011;873;47.696;8.068;2023-04-03T16:38:22;3.33;;;2.03;;
1751;SDS011;873;47.696;8.068;2023-04-03T16:40:48;2.47;;;1.77;;
1751;SDS011;873;47.696;8.068;2023-04-03T16:43:14;5.47;;;2.10;;
1751;SDS011;873;47.696;8.068;2023-04-03T16:45:40;2.97;;;2.13;;
1751;SDS011;873;47.696;8.068;2023-04-03T16:48:06;2.53;;;1.83;;
1751;SDS011;873;47.696;8.068;2023-04-03T16:50:32;2.53;;;1.87;;
1751;SDS011;873;47.696;8.068;2023-04-03T16:52:57;4.63;;;2.10;;
1751;SDS011;873;47.696;8.068;2023-04-03T16:55:23;1.90;;;1.60;;
1751;SDS011;873;47.696;8.068;2023-04-03T16:57:48;1.93;;;1.60;;
1751;SDS011;873;47.696;8.068;2023-04-03T17:00:14;2.77;;;2.27;;
1751;SDS011;873;47.696;8.068;2023-04-03T17:02:41;2.30;;;2.10;;
1751;SDS011;873;47.696;8.068;2023-04-03T17:05:07;1.93;;;1.63;;
1751;SDS011;873;47.696;8.068;2023-04-03T17:07:32;1.90;;;1.80;;
1751;SDS011;873;47.696;8.068;2023-04-03T17:09:58;3.93;;;2.00;;
1751;SDS011;873;47.696;8.068;2023-04-03T17:12:24;2.37;;;1.70;;
1751;SDS011;873;47.696;8.068;2023-04-03T17:14:51;3.53;;;2.40;;
1751;SDS011;873;47.696;8.068;2023-04-03T17:17:18;2.30;;;1.80;;
1751;SDS011;873;47.696;8.068;2023-04-03T17:19:45;2.10;;;1.67;;
1751;SDS011;873;47.696;8.068;2023-04-03T17:22:11;3.93;;;1.93;;
1751;SDS011;873;47.696;8.068;2023-04-03T17:24:37;2.40;;;2.10;;